createdAt,value
2019-05-19T00:00:29.594Z,16.6
2019-05-19T00:01:43.178Z,16.5
2019-05-19T00:02:56.784Z,16.1
2019-05-19T00:04:08.439Z,15.9
2019-05-19T00:05:19.883Z,15.7
2019-05-19T00:06:31.462Z,15.6
2019-05-19T00:07:43.062Z,15.5
2019-05-19T00:08:53.711Z,15.4
2019-05-19T00:10:05.317Z,15.2
2019-05-19T00:11:14.867Z,15.1
2019-05-19T00:12:24.409Z,15.2
2019-05-19T00:13:33.962Z,15.1
2019-05-19T00:14:43.625Z,15.3
2019-05-19T00:15:53.072Z,15.6
2019-05-19T00:17:02.626Z,15.5
2019-05-19T00:18:12.182Z,15.7
2019-05-19T00:19:26.545Z,15.5
2019-05-19T00:20:35.288Z,15.5
2019-05-19T00:21:46.832Z,15.9
2019-05-19T00:22:58.385Z,15.9
2019-05-19T00:24:09.936Z,15.8
2019-05-19T00:25:21.573Z,15.9
2019-05-19T00:26:33.039Z,15.9
2019-05-19T00:27:44.612Z,15.9
2019-05-19T00:28:56.127Z,15.9
2019-05-19T00:30:05.685Z,16
2019-05-19T00:31:15.264Z,16
2019-05-19T00:32:24.782Z,15.9
2019-05-19T00:33:34.412Z,15.8
2019-05-19T00:34:43.889Z,15.7
2019-05-19T00:35:53.460Z,15.7
2019-05-19T00:37:02.979Z,15.6
2019-05-19T00:38:12.541Z,15.5
2019-05-19T00:39:22.106Z,15.4
2019-05-19T00:40:31.601Z,15.4
2019-05-19T00:41:41.243Z,15.4
2019-05-19T00:42:50.696Z,15.2
2019-05-19T00:44:00.249Z,15.1
2019-05-19T00:45:09.798Z,15.1
2019-05-19T00:46:19.330Z,15.1
2019-05-19T00:47:28.875Z,15.2
2019-05-19T00:48:38.483Z,15.2
2019-05-19T00:49:47.975Z,15.3
2019-05-19T00:50:57.489Z,15.3
2019-05-19T00:52:07.030Z,15.4
2019-05-19T00:53:16.568Z,15.6
2019-05-19T00:54:26.132Z,15.6
2019-05-19T00:55:35.655Z,15.6
2019-05-19T00:56:45.200Z,15.5
2019-05-19T00:57:54.740Z,15.5
2019-05-19T00:59:04.279Z,15.5
2019-05-19T01:00:13.802Z,15.5
2019-05-19T01:01:23.348Z,15.6
2019-05-19T01:02:32.877Z,15.6
2019-05-19T01:03:42.437Z,15.5
2019-05-19T01:04:51.964Z,15.5
2019-05-19T01:06:01.562Z,15.5
2019-05-19T01:07:11.057Z,15.5
2019-05-19T01:08:20.594Z,15.5
2019-05-19T01:09:30.114Z,15.6
2019-05-19T01:10:40.828Z,15.5
2019-05-19T01:11:50.363Z,15.5
2019-05-19T01:12:59.907Z,15.5
2019-05-19T01:14:09.451Z,15.5
2019-05-19T01:15:19.014Z,15.5
2019-05-19T01:16:28.543Z,15.5
2019-05-19T01:17:38.120Z,15.5
2019-05-19T01:18:47.602Z,15.5
2019-05-19T01:19:57.139Z,15.5
2019-05-19T01:21:06.770Z,15.4
2019-05-19T01:22:16.220Z,15.4
2019-05-19T01:23:25.769Z,15.5
2019-05-19T01:24:35.339Z,15.5
2019-05-19T01:25:44.837Z,15.4
2019-05-19T01:26:54.378Z,15.4
2019-05-19T01:28:03.923Z,15.4
2019-05-19T01:29:13.456Z,15.4
2019-05-19T01:31:32.556Z,15.4
2019-05-19T01:32:42.071Z,15.4
2019-05-19T01:33:51.699Z,15.4
2019-05-19T01:35:01.198Z,15.3
2019-05-19T01:36:10.681Z,15.4
2019-05-19T01:37:20.210Z,15.3
2019-05-19T01:38:29.777Z,15.3
2019-05-19T01:39:39.291Z,15.3
2019-05-19T01:40:48.840Z,15.2
2019-05-19T01:41:58.370Z,15.3
2019-05-19T01:43:07.925Z,15.3
2019-05-19T01:44:17.428Z,15.4
2019-05-19T01:45:27.038Z,15.3
2019-05-19T01:46:36.554Z,15.2
2019-05-19T01:47:46.029Z,15.3
2019-05-19T01:48:55.601Z,15.3
2019-05-19T01:50:16.796Z,15.3
2019-05-19T01:51:14.633Z,15.2
2019-05-19T01:52:24.196Z,15.2
2019-05-19T01:53:33.741Z,15.3
2019-05-19T01:54:43.235Z,15.1
2019-05-19T01:55:52.824Z,15.2
2019-05-19T01:57:02.295Z,15.2
2019-05-19T01:58:11.862Z,15.3
2019-05-19T01:59:21.359Z,15.2
2019-05-19T02:00:30.895Z,15.2
2019-05-19T02:01:40.432Z,15.2
2019-05-19T02:02:49.949Z,15.1
2019-05-19T02:03:59.488Z,15.1
2019-05-19T02:05:09.015Z,15.2
2019-05-19T02:06:18.543Z,15.2
2019-05-19T02:07:28.085Z,15.2
2019-05-19T02:08:37.705Z,15.1
2019-05-19T02:09:47.172Z,15
2019-05-19T02:10:56.712Z,15.1
2019-05-19T02:12:06.207Z,15.3
2019-05-19T02:13:15.717Z,15.2
2019-05-19T02:14:25.233Z,15.1
2019-05-19T02:15:34.766Z,15.1
2019-05-19T02:16:44.320Z,15.1
2019-05-19T02:17:53.827Z,15.2
2019-05-19T02:19:03.396Z,15.1
2019-05-19T02:20:12.888Z,15.1
2019-05-19T02:21:22.406Z,15.2
2019-05-19T02:22:31.930Z,15.1
2019-05-19T02:23:41.477Z,15.2
2019-05-19T02:24:50.978Z,15.1
2019-05-19T02:26:00.506Z,15.2
2019-05-19T02:27:10.034Z,15.2
2019-05-19T02:28:19.568Z,15.1
2019-05-19T02:29:29.101Z,15.1
2019-05-19T02:30:38.626Z,15
2019-05-19T02:31:48.190Z,15
2019-05-19T02:32:57.670Z,15
2019-05-19T02:34:07.209Z,15
2019-05-19T02:35:16.711Z,15
2019-05-19T02:36:26.248Z,15
2019-05-19T02:37:35.776Z,15
2019-05-19T02:38:45.306Z,14.8
2019-05-19T02:39:54.821Z,14.9
2019-05-19T02:41:04.342Z,14.7
2019-05-19T02:42:14.004Z,14.6
2019-05-19T02:43:23.385Z,14.5
2019-05-19T02:44:32.914Z,14.4
2019-05-19T02:45:42.428Z,14.5
2019-05-19T02:46:51.997Z,14.4
2019-05-19T02:48:01.469Z,14.4
2019-05-19T02:49:11.001Z,14.5
2019-05-19T02:50:20.506Z,14.5
2019-05-19T02:51:30.044Z,14.5
2019-05-19T02:52:39.569Z,14.5
2019-05-19T02:53:49.078Z,14.4
2019-05-19T02:54:58.596Z,14.5
2019-05-19T02:56:08.202Z,14.5
2019-05-19T02:57:17.604Z,14.5
2019-05-19T02:58:27.113Z,14.5
2019-05-19T02:59:36.665Z,14.5
2019-05-19T03:00:46.146Z,14.4
2019-05-19T03:01:55.660Z,14.4
2019-05-19T03:03:05.177Z,14.5
2019-05-19T03:04:14.703Z,14.4
2019-05-19T03:05:24.239Z,14.3
2019-05-19T03:06:33.712Z,14.3
2019-05-19T03:07:43.227Z,14.4
2019-05-19T03:08:52.821Z,14.4
2019-05-19T03:10:02.258Z,14.4
2019-05-19T03:11:11.791Z,14.4
2019-05-19T03:12:21.297Z,14.3
2019-05-19T03:13:30.805Z,14.2
2019-05-19T03:14:40.325Z,14.2
2019-05-19T03:15:50.000Z,14.3
2019-05-19T03:16:59.330Z,14.2
2019-05-19T03:18:08.836Z,14.1
2019-05-19T03:19:18.377Z,14
2019-05-19T03:20:27.880Z,13.9
2019-05-19T03:21:37.375Z,14
2019-05-19T03:22:46.874Z,13.9
2019-05-19T03:23:56.414Z,14
2019-05-19T03:25:05.900Z,14
2019-05-19T03:26:15.428Z,14.1
2019-05-19T03:27:24.939Z,14.2
2019-05-19T03:28:34.424Z,14.4
2019-05-19T03:29:43.931Z,14.7
2019-05-19T03:30:53.481Z,14.8
2019-05-19T03:32:02.970Z,14.9
2019-05-19T03:33:12.603Z,15
2019-05-19T03:34:21.967Z,15.1
2019-05-19T03:35:31.477Z,15.1
2019-05-19T03:36:40.991Z,15.2
2019-05-19T03:37:50.504Z,15.1
2019-05-19T03:39:00.025Z,15.1
2019-05-19T03:40:09.531Z,15.1
2019-05-19T03:41:19.065Z,15.3
2019-05-19T03:42:28.589Z,15.3
2019-05-19T03:43:38.138Z,15.2
2019-05-19T03:44:47.622Z,15.2
2019-05-19T03:45:57.138Z,15.6
2019-05-19T03:47:06.754Z,15.6
2019-05-19T03:48:16.204Z,15.7
2019-05-19T03:49:25.720Z,15.4
2019-05-19T03:50:35.259Z,15.7
2019-05-19T03:51:44.786Z,16
2019-05-19T03:52:54.368Z,15.9
2019-05-19T03:54:03.865Z,15.7
2019-05-19T03:55:13.436Z,15.8
2019-05-19T03:56:22.936Z,15.8
2019-05-19T03:57:32.478Z,15.6
2019-05-19T03:58:42.013Z,15.5
2019-05-19T03:59:51.652Z,15.4
2019-05-19T04:01:01.255Z,15.5
2019-05-19T04:02:10.654Z,15.2
2019-05-19T04:03:20.180Z,15.4
2019-05-19T04:04:29.732Z,15.5
2019-05-19T04:05:39.291Z,15.3
2019-05-19T04:06:48.840Z,15.6
2019-05-19T04:07:58.384Z,15.6
2019-05-19T04:09:08.006Z,15.5
2019-05-19T04:10:17.502Z,15.6
2019-05-19T04:11:27.037Z,15.5
2019-05-19T04:12:36.694Z,15.7
2019-05-19T04:13:46.144Z,15.7
2019-05-19T04:14:55.736Z,16
2019-05-19T04:16:05.253Z,16.6
2019-05-19T04:17:14.826Z,17.2
2019-05-19T04:18:24.461Z,16.6
2019-05-19T04:19:33.935Z,16.1
2019-05-19T04:20:43.493Z,16.4
2019-05-19T04:21:53.123Z,16.5
2019-05-19T04:23:04.630Z,16.9
2019-05-19T04:25:27.810Z,16.9
2019-05-19T04:26:39.363Z,16.9
2019-05-19T04:27:50.962Z,17.5
2019-05-19T04:29:02.546Z,17.1
2019-05-19T04:30:14.105Z,16.4
2019-05-19T04:31:25.705Z,16.6
2019-05-19T04:32:37.285Z,16.9
2019-05-19T04:33:48.888Z,17.3
2019-05-19T04:35:00.473Z,17.6
2019-05-19T04:36:12.146Z,17.4
2019-05-19T04:37:23.712Z,17.9
2019-05-19T04:38:35.265Z,17.8
2019-05-19T04:39:46.890Z,18.2
2019-05-19T04:40:58.518Z,18.8
2019-05-19T04:42:12.132Z,18.7
2019-05-19T04:43:25.827Z,17.7
2019-05-19T04:44:39.366Z,17.9
2019-05-19T04:45:52.981Z,18.2
2019-05-19T04:47:04.629Z,17.1
2019-05-19T04:48:16.243Z,16.8
2019-05-19T04:49:27.879Z,17.1
2019-05-19T04:50:39.538Z,18
2019-05-19T04:52:05.766Z,17.7
2019-05-19T04:53:06.778Z,17.9
2019-05-19T04:54:20.416Z,18
2019-05-19T04:55:32.062Z,17.1
2019-05-19T04:56:45.852Z,18.2
2019-05-19T04:57:59.384Z,17.6
2019-05-19T04:59:13.002Z,18
2019-05-19T05:00:26.657Z,18.5
2019-05-19T05:01:40.328Z,17.5
2019-05-19T05:02:54.034Z,18
2019-05-19T05:04:07.645Z,17.5
2019-05-19T05:05:21.279Z,17.8
2019-05-19T05:06:34.945Z,18.4
2019-05-19T05:07:46.599Z,18.5
2019-05-19T05:09:00.268Z,18.9
2019-05-19T05:10:14.032Z,18.8
2019-05-19T05:11:27.571Z,18.9
2019-05-19T05:12:41.262Z,18.8
2019-05-19T05:13:54.905Z,19.3
2019-05-19T05:15:08.604Z,19.1
2019-05-19T05:16:22.260Z,19
2019-05-19T05:17:35.935Z,20.2
2019-05-19T05:18:49.646Z,19.2
2019-05-19T05:20:03.304Z,19.1
2019-05-19T05:21:16.991Z,19.7
2019-05-19T05:22:30.696Z,18.2
2019-05-19T05:23:44.384Z,18.7
2019-05-19T05:24:58.081Z,18.5
2019-05-19T05:26:11.872Z,18.5
2019-05-19T05:27:25.479Z,19.1
2019-05-19T05:29:52.865Z,18.7
2019-05-19T05:31:06.708Z,19.1
2019-05-19T05:32:20.330Z,19.5
2019-05-19T05:33:33.994Z,19.7
2019-05-19T05:34:47.776Z,18.7
2019-05-19T05:36:01.387Z,19.3
2019-05-19T05:37:15.114Z,18.4
2019-05-19T05:38:28.804Z,18.4
2019-05-19T05:39:42.502Z,18.2
2019-05-19T05:40:56.200Z,18.3
2019-05-19T05:42:09.896Z,18.4
2019-05-19T05:43:23.601Z,17.4
2019-05-19T05:44:35.294Z,17.8
2019-05-19T05:45:47.625Z,17.6
2019-05-19T05:46:58.748Z,18.4
2019-05-19T05:48:12.366Z,18.6
2019-05-19T05:49:26.078Z,18.9
2019-05-19T05:50:39.910Z,18.8
2019-05-19T05:51:53.434Z,19
2019-05-19T05:53:07.132Z,19.1
2019-05-19T05:54:20.854Z,19.7
2019-05-19T05:55:36.630Z,21.1
2019-05-19T05:56:52.247Z,19.5
2019-05-19T05:58:07.959Z,20.2
2019-05-19T05:59:23.728Z,20.1
2019-05-19T06:00:39.423Z,20.1
2019-05-19T06:01:53.150Z,18.8
2019-05-19T06:03:08.893Z,19.9
2019-05-19T06:04:24.725Z,19.8
2019-05-19T06:05:38.349Z,18.4
2019-05-19T06:06:54.093Z,19.5
2019-05-19T06:08:07.865Z,18.5
2019-05-19T06:09:25.570Z,20.7
2019-05-19T06:10:41.322Z,19
2019-05-19T06:11:57.109Z,19.3
2019-05-19T06:13:14.827Z,20.1
2019-05-19T06:14:32.605Z,20
2019-05-19T11:08:34.293Z,25
2019-05-19T11:12:18.363Z,25.2
2019-05-19T11:13:44.449Z,25.1
2019-05-19T11:15:14.469Z,24.3
2019-05-19T11:16:50.645Z,24.8
2019-05-19T11:18:34.720Z,25.8
2019-05-19T11:20:08.682Z,25.2
2019-05-19T11:22:50.777Z,26.2
2019-05-19T11:24:18.938Z,25.3
2019-05-19T11:26:02.969Z,25.5
2019-05-19T11:27:30.989Z,24.4
2019-05-19T11:29:00.993Z,24.2
2019-05-19T11:30:28.980Z,24.3
2019-05-19T11:32:03.129Z,24.9
2019-05-19T11:33:41.005Z,25.1
2019-05-19T11:35:17.013Z,25.3
2019-05-19T11:36:49.091Z,25.1
2019-05-19T11:38:29.031Z,25.2
2019-05-19T11:40:15.117Z,25.6
2019-05-19T11:42:05.125Z,26.3
2019-05-19T11:43:59.162Z,26.9
2019-05-19T11:45:35.206Z,25.5
2019-05-19T11:47:15.301Z,25
2019-05-19T11:49:05.332Z,25.9
2019-05-19T11:51:14.534Z,26.1
2019-05-19T11:52:52.678Z,25.5
2019-05-19T11:54:34.678Z,25.7
2019-05-19T11:59:04.894Z,26.1
2019-05-19T12:01:39.017Z,26.1
2019-05-19T12:03:04.231Z,25.4
2019-05-19T12:04:42.305Z,25.8
2019-05-19T12:06:13.486Z,25.4
2019-05-19T12:07:45.577Z,25.4
2019-05-19T12:09:22.831Z,25.3
2019-05-19T12:13:24.961Z,26.3
2019-05-19T12:15:04.993Z,26.1
2019-05-19T12:17:25.085Z,26.5
2019-05-19T12:19:09.177Z,26
2019-05-19T12:20:49.254Z,26.2
2019-05-19T12:22:31.332Z,25.9
2019-05-19T12:24:29.460Z,26.4
2019-05-19T12:26:34.847Z,27
2019-05-19T12:28:05.575Z,25.6
2019-05-19T12:30:11.660Z,26.3
2019-05-19T12:31:39.730Z,25.4
2019-05-19T12:33:09.800Z,25
2019-05-19T12:34:47.881Z,25.2
2019-05-19T12:36:21.927Z,26.2
2019-05-19T12:37:58.095Z,25.8
2019-05-19T12:39:38.089Z,26.1
2019-05-19T12:41:10.148Z,25.2
2019-05-19T12:42:56.203Z,26.3
2019-05-19T12:49:28.549Z,26.9
2019-05-19T12:51:54.619Z,27
2019-05-19T12:54:22.820Z,27.5
2019-05-19T12:55:50.900Z,27.3
2019-05-19T12:57:21.393Z,26.6
2019-05-19T12:58:47.104Z,25.4
2019-05-19T13:00:19.197Z,25.6
2019-05-19T13:01:51.257Z,26.1
2019-05-19T13:05:04.665Z,27.9
2019-05-19T13:06:25.506Z,26.4
2019-05-19T13:08:21.638Z,27.3
2019-05-19T13:09:59.705Z,27.5
2019-05-19T13:11:27.816Z,26
2019-05-19T13:12:59.918Z,26.3
2019-05-19T13:14:31.974Z,26.2
2019-05-19T13:16:00.028Z,25.4
2019-05-19T13:17:28.069Z,25.5
2019-05-19T13:18:58.476Z,25.7
2019-05-19T13:20:28.138Z,25.8
2019-05-19T13:21:56.200Z,25.3
2019-05-19T13:23:28.194Z,26
2019-05-19T13:24:56.218Z,25.7
2019-05-19T13:26:24.324Z,25.6
2019-05-19T13:27:50.259Z,25
2019-05-19T13:29:18.327Z,25.1
2019-05-19T13:30:44.299Z,25
2019-05-19T13:32:10.321Z,24.8
2019-05-19T13:33:38.281Z,25
2019-05-19T13:35:06.264Z,25.2
2019-05-19T13:36:34.222Z,25
2019-05-19T13:38:02.203Z,24.9
2019-05-19T13:39:32.164Z,25.1
2019-05-19T13:40:58.109Z,25.3
2019-05-19T13:42:24.073Z,25.2
2019-05-19T13:43:52.160Z,25.6
2019-05-19T13:45:20.020Z,25.5
2019-05-19T13:46:46.068Z,25.2
2019-05-19T13:48:12.018Z,25.4
2019-05-19T13:49:34.003Z,24.3
2019-05-19T13:50:55.987Z,24.1
2019-05-19T13:52:17.973Z,23.9
2019-05-19T13:53:37.911Z,23.3
2019-05-19T13:54:59.928Z,23.3
2019-05-19T13:56:25.838Z,23.1
2019-05-19T13:57:45.712Z,23.3
2019-05-19T13:59:05.615Z,23.2
2019-05-19T14:00:25.545Z,23.6
2019-05-19T14:01:47.491Z,24.1
2019-05-19T14:03:09.558Z,24.2
2019-05-19T14:04:31.604Z,23.7
2019-05-19T14:05:51.432Z,23.9
2019-05-19T14:07:13.377Z,24.4
2019-05-19T14:08:37.326Z,24.6
2019-05-19T14:09:59.297Z,24.3
2019-05-19T14:11:19.323Z,24.1
2019-05-19T14:12:39.195Z,23.8
2019-05-19T14:13:59.141Z,23.9
2019-05-19T14:15:21.097Z,24.3
2019-05-19T14:16:43.028Z,24.4
2019-05-19T14:18:02.967Z,23.7
2019-05-19T14:19:22.917Z,23.6
2019-05-19T14:20:42.807Z,23.6
2019-05-19T14:22:02.717Z,23.4
2019-05-19T14:23:26.597Z,23.5
2019-05-19T14:24:44.490Z,23.3
2019-05-19T14:26:04.430Z,23.4
2019-05-19T14:27:29.904Z,23.2
2019-05-19T14:28:44.187Z,23
2019-05-19T14:30:04.034Z,23.3
2019-05-19T14:32:43.677Z,23.3
2019-05-19T14:34:03.512Z,23.3
2019-05-19T14:35:21.349Z,23.1
2019-05-19T14:36:41.223Z,23.2
2019-05-19T14:38:01.014Z,23.1
2019-05-19T14:39:20.860Z,22.7
2019-05-19T14:40:40.711Z,23.1
2019-05-19T14:42:00.525Z,23
2019-05-19T14:43:20.356Z,23
2019-05-19T14:44:36.305Z,22.9
2019-05-19T14:45:52.004Z,22.8
2019-05-19T14:47:07.836Z,23.1
2019-05-19T14:48:23.703Z,23.1
2019-05-19T14:49:39.500Z,23.1
2019-05-19T14:50:55.337Z,23.1
2019-05-19T14:52:11.172Z,23.1
2019-05-19T14:53:27.035Z,23.2
2019-05-19T14:54:44.900Z,23.4
2019-05-19T14:56:02.843Z,23.6
2019-05-19T14:57:20.905Z,24.3
2019-05-19T14:58:36.862Z,22.9
2019-05-19T14:59:54.886Z,23.2
2019-05-19T15:01:12.876Z,23.2
2019-05-19T15:02:30.947Z,23.3
2019-05-19T15:03:48.984Z,23.5
2019-05-19T15:05:07.099Z,23.9
2019-05-19T15:06:25.163Z,23.8
2019-05-19T15:08:58.576Z,23.1
2019-05-19T15:10:16.583Z,23.3
2019-05-19T15:11:34.615Z,23.3
2019-05-19T15:12:52.780Z,23.6
2019-05-19T15:14:08.918Z,23.2
2019-05-19T15:15:24.982Z,22.9
2019-05-19T15:16:41.123Z,23.2
2019-05-19T15:17:57.246Z,23.3
2019-05-19T15:19:13.351Z,22.6
2019-05-19T15:20:29.442Z,22.9
2019-05-19T15:21:45.532Z,23.3
2019-05-19T15:23:01.550Z,23
2019-05-19T15:24:17.574Z,23
2019-05-19T15:25:33.522Z,23
2019-05-19T15:26:49.458Z,22.8
2019-05-19T15:28:05.718Z,22.6
2019-05-19T15:29:21.291Z,22.8
2019-05-19T15:30:35.185Z,22.6
2019-05-19T15:31:51.036Z,22.8
2019-05-19T15:33:04.885Z,22.8
2019-05-19T15:34:20.836Z,22.6
2019-05-19T15:35:34.633Z,22.6
2019-05-19T15:36:48.422Z,22.5
2019-05-19T15:38:02.278Z,22.4
2019-05-19T15:39:16.091Z,22.5
2019-05-19T15:40:29.893Z,22.3
2019-05-19T15:41:43.735Z,22.2
2019-05-19T15:42:57.528Z,22.2
2019-05-19T15:44:13.360Z,22.2
2019-05-19T15:45:31.155Z,22.3
2019-05-19T15:46:48.974Z,22.4
2019-05-19T15:48:04.797Z,22.4
2019-05-19T15:49:20.561Z,22.5
2019-05-19T15:50:36.383Z,22.4
2019-05-19T15:53:07.963Z,22.7
2019-05-19T15:54:23.913Z,22.6
2019-05-19T15:55:39.537Z,22.5
2019-05-19T15:56:55.349Z,22.7
2019-05-19T15:58:16.354Z,22.3
2019-05-19T15:59:26.962Z,22.5
2019-05-19T16:00:42.732Z,22.6
2019-05-19T16:01:58.564Z,22.6
2019-05-19T16:03:14.358Z,22.6
2019-05-19T16:04:30.132Z,22.6
2019-05-19T16:05:45.943Z,22.8
2019-05-19T16:07:01.774Z,22.8
2019-05-19T16:08:17.599Z,22.8
2019-05-19T16:09:33.344Z,22.8
2019-05-19T16:10:49.131Z,22.5
2019-05-19T16:12:05.014Z,22.7
2019-05-19T16:13:22.021Z,22.8
2019-05-19T16:15:52.366Z,22.7
2019-05-19T16:17:08.187Z,22.5
2019-05-19T16:18:23.922Z,22.5
2019-05-19T16:19:39.705Z,22.6
2019-05-19T16:20:55.501Z,22.7
2019-05-19T16:22:11.290Z,22.6
2019-05-19T16:23:27.078Z,22.8
2019-05-19T16:25:58.676Z,22.3
2019-05-19T16:27:14.467Z,22.5
2019-05-19T16:28:31.092Z,22.7
2019-05-19T16:29:46.093Z,22.5
2019-05-19T16:31:01.913Z,22.6
2019-05-19T16:32:17.647Z,22.5
2019-05-19T16:33:33.442Z,22.7
2019-05-19T16:34:49.224Z,22.7
2019-05-19T16:36:07.819Z,22.7
2019-05-19T16:37:20.835Z,22.6
2019-05-19T16:38:36.666Z,22.7
2019-05-19T16:39:52.402Z,22.3
2019-05-19T16:41:06.223Z,22.2
2019-05-19T16:42:21.994Z,22.2
2019-05-19T16:43:37.810Z,22.2
2019-05-19T16:44:51.639Z,22.2
2019-05-19T16:46:07.376Z,22.2
2019-05-19T16:47:23.164Z,22.3
2019-05-19T16:48:36.985Z,22.4
2019-05-19T16:49:52.802Z,22.3
2019-05-19T16:51:06.645Z,22.3
2019-05-19T16:52:20.350Z,22.1
2019-05-19T16:53:36.242Z,22.3
2019-05-19T16:54:49.927Z,22.3
2019-05-19T16:56:03.670Z,22.1
2019-05-19T16:57:17.461Z,22.1
2019-05-19T16:58:44.306Z,22.1
2019-05-19T16:59:45.030Z,22.1
2019-05-19T17:00:58.812Z,22.1
2019-05-19T17:02:14.579Z,22.1
2019-05-19T17:03:28.359Z,22.2
2019-05-19T17:04:42.143Z,22.1
2019-05-19T17:05:55.886Z,22.1
2019-05-19T17:07:09.662Z,22.1
2019-05-19T17:08:23.536Z,22.1
2019-05-19T17:09:37.201Z,22
2019-05-19T17:10:50.971Z,22
2019-05-19T17:12:06.860Z,22.4
2019-05-19T17:13:18.549Z,22
2019-05-19T17:14:32.273Z,21.9
2019-05-19T17:15:46.055Z,21.9
2019-05-19T17:16:59.808Z,22
2019-05-19T17:18:13.571Z,22
2019-05-19T17:19:27.417Z,22
2019-05-19T17:20:41.114Z,22
2019-05-19T17:21:54.932Z,21.9
2019-05-19T17:23:08.639Z,21.9
2019-05-19T17:24:22.413Z,21.9
2019-05-19T17:25:36.180Z,21.9
2019-05-19T17:26:49.932Z,22
2019-05-19T17:28:03.674Z,21.9
2019-05-19T17:29:17.439Z,21.9
2019-05-19T17:30:31.229Z,21.9
2019-05-19T17:31:45.014Z,21.8
2019-05-19T17:32:58.744Z,21.8
2019-05-19T17:34:12.484Z,21.9
2019-05-19T17:35:26.240Z,21.4
2019-05-19T17:36:40.185Z,21.9
2019-05-19T17:37:53.757Z,21.9
2019-05-19T17:39:07.597Z,21.9
2019-05-19T17:40:21.273Z,21.9
2019-05-19T17:41:35.041Z,21.9
2019-05-19T17:42:48.809Z,21.8
2019-05-19T17:44:02.525Z,21.8
2019-05-19T17:45:16.282Z,21.8
2019-05-19T17:46:30.053Z,21.8
2019-05-19T17:47:41.793Z,21.8
2019-05-19T17:48:55.572Z,21.8
2019-05-19T17:50:07.358Z,21.8
2019-05-19T17:51:21.158Z,21.8
2019-05-19T17:52:32.808Z,21.8
2019-05-19T17:53:46.551Z,21.8
2019-05-19T17:54:58.392Z,21.8
2019-05-19T17:56:10.099Z,21.8
2019-05-19T17:57:21.911Z,21.8
2019-05-19T17:58:33.559Z,21.8
2019-05-19T17:59:45.306Z,21.8
2019-05-19T18:00:57.069Z,21.8
2019-05-19T18:02:08.820Z,21.7
2019-05-19T18:03:20.545Z,21.7
2019-05-19T18:04:32.303Z,21.8
2019-05-19T18:05:44.072Z,21.8
2019-05-19T18:06:55.816Z,21.7
2019-05-19T18:08:07.640Z,21.7
2019-05-19T18:09:19.290Z,21.7
2019-05-19T18:10:31.041Z,21.7
2019-05-19T18:11:42.786Z,21.7
2019-05-19T18:12:54.527Z,21.7
2019-05-19T18:14:06.301Z,21.7
2019-05-19T18:15:18.018Z,21.7
2019-05-19T18:16:29.766Z,21.7
2019-05-19T18:17:41.550Z,21.7
2019-05-19T18:18:53.253Z,21.6
2019-05-19T18:20:05.000Z,21.6
2019-05-19T18:21:16.763Z,21.6
2019-05-19T18:22:28.608Z,21.5
2019-05-19T18:23:41.370Z,21.5
2019-05-19T18:26:07.130Z,21.4
2019-05-19T18:27:16.404Z,21.4
2019-05-19T18:28:28.057Z,21.4
2019-05-19T18:29:39.831Z,21.3
2019-05-19T18:30:51.621Z,21.3
2019-05-19T18:32:03.288Z,21.3
2019-05-19T18:33:15.002Z,21.3
2019-05-19T18:34:26.824Z,21.3
2019-05-19T18:35:38.479Z,21.3
2019-05-19T18:36:50.242Z,21.3
2019-05-19T18:38:01.934Z,21.2
2019-05-19T18:39:13.672Z,21.2
2019-05-19T18:40:25.416Z,21.2
2019-05-19T18:41:37.155Z,21.2
2019-05-19T18:42:48.859Z,21.2
2019-05-19T18:44:00.655Z,21.2
2019-05-19T18:45:12.316Z,21.2
2019-05-19T18:46:24.069Z,21.2
2019-05-19T18:47:35.782Z,21.2
2019-05-19T18:48:47.497Z,21.2
2019-05-19T18:49:59.228Z,21.2
2019-05-19T18:51:10.968Z,21.2
2019-05-19T18:52:22.817Z,21.2
2019-05-19T18:53:34.406Z,21.2
2019-05-19T18:54:46.286Z,21.1
2019-05-19T18:55:57.898Z,21.1
2019-05-19T18:57:09.598Z,21.2
2019-05-19T18:58:21.294Z,21.2
2019-05-19T18:59:46.376Z,21.1
2019-05-19T19:00:45.073Z,21.1
2019-05-19T19:01:56.466Z,21.1
2019-05-19T19:03:08.228Z,21
2019-05-19T19:04:19.908Z,21
2019-05-19T19:05:31.635Z,21
2019-05-19T19:06:43.472Z,21.1
2019-05-19T19:07:55.095Z,21
2019-05-19T19:09:06.902Z,21
2019-05-19T19:10:18.518Z,21
2019-05-19T19:11:30.260Z,21
2019-05-19T19:12:41.973Z,21
2019-05-19T19:13:53.673Z,21
2019-05-19T19:15:05.401Z,21
2019-05-19T19:16:17.141Z,21
2019-05-19T19:17:28.826Z,21
2019-05-19T19:18:40.549Z,21
2019-05-19T19:19:52.318Z,21
2019-05-19T19:21:03.989Z,21
2019-05-19T19:22:15.786Z,20.9
2019-05-19T19:23:27.413Z,20.9
2019-05-19T19:24:39.166Z,20.9
2019-05-19T19:25:50.843Z,20.9
2019-05-19T19:27:02.556Z,21
2019-05-19T19:28:14.280Z,20.9
2019-05-19T19:29:25.984Z,20.9
2019-05-19T19:30:37.728Z,20.9
2019-05-19T19:31:49.427Z,20.9
2019-05-19T19:33:01.145Z,20.9
2019-05-19T19:34:12.853Z,20.8
2019-05-19T19:35:24.620Z,20.9
2019-05-19T19:37:47.980Z,20.8
2019-05-19T19:38:59.695Z,20.8
2019-05-19T19:40:11.428Z,20.8
2019-05-19T19:41:23.193Z,20.8
2019-05-19T19:42:34.862Z,20.8
2019-05-19T19:43:46.551Z,20.7
2019-05-19T19:44:58.286Z,20.7
2019-05-19T19:46:10.004Z,20.6
2019-05-19T19:47:21.722Z,20.7
2019-05-19T19:48:33.382Z,20.6
2019-05-19T19:49:45.085Z,20.6
2019-05-19T19:50:56.816Z,20.6
2019-05-19T19:52:08.510Z,20.6
2019-05-19T19:53:20.217Z,20.6
2019-05-19T19:54:31.938Z,20.5
2019-05-19T19:55:43.634Z,20.5
2019-05-19T19:56:55.508Z,20.5
2019-05-19T19:58:07.044Z,20.5
2019-05-19T19:59:18.744Z,20.4
2019-05-19T20:00:30.451Z,20.4
2019-05-19T20:01:42.171Z,20.4
2019-05-19T20:02:53.858Z,20.4
2019-05-19T20:04:05.569Z,20.3
2019-05-19T20:05:17.314Z,20.3
2019-05-19T20:06:29.097Z,20.3
2019-05-19T20:07:40.660Z,20.3
2019-05-19T20:08:52.360Z,20.3
2019-05-19T20:10:04.062Z,20.3
2019-05-19T20:11:15.774Z,20.3
2019-05-19T20:12:27.570Z,20.2
2019-05-19T20:13:39.150Z,20.2
2019-05-19T20:14:50.866Z,20.2
2019-05-19T20:16:02.535Z,20.2
2019-05-19T20:17:14.241Z,20.2
2019-05-19T20:18:25.930Z,20.2
2019-05-19T20:19:37.688Z,20.1
2019-05-19T20:20:49.336Z,20.1
2019-05-19T20:22:01.040Z,20.1
2019-05-19T20:23:12.700Z,20.1
2019-05-19T20:24:24.483Z,20.1
2019-05-19T20:25:37.227Z,20.1
2019-05-19T20:26:45.784Z,20.1
2019-05-19T20:27:57.473Z,20.1
2019-05-19T20:29:07.154Z,20.1
2019-05-19T20:30:32.469Z,20.1
2019-05-19T20:31:31.315Z,20
2019-05-19T20:32:38.216Z,20
2019-05-19T20:33:47.922Z,20
2019-05-19T20:34:57.588Z,20
2019-05-19T20:36:07.271Z,19.9
2019-05-19T20:37:17.010Z,19.9
2019-05-19T20:39:36.334Z,19.9
2019-05-19T20:40:46.112Z,19.9
2019-05-19T20:41:55.714Z,19.9
2019-05-19T20:43:05.376Z,19.9
2019-05-19T20:44:15.065Z,19.9
2019-05-19T20:45:24.904Z,19.9
2019-05-19T20:46:34.425Z,19.9
2019-05-19T20:47:44.179Z,19.9
2019-05-19T20:48:53.768Z,19.9
2019-05-19T20:50:03.554Z,19.8
2019-05-19T20:51:13.132Z,19.8
2019-05-19T20:52:22.952Z,19.8
2019-05-19T20:53:32.525Z,19.8
2019-05-19T20:54:42.169Z,19.8
2019-05-19T20:55:51.853Z,19.8
2019-05-19T20:57:01.527Z,19.8
2019-05-19T20:58:11.243Z,19.8
2019-05-19T20:59:20.896Z,19.7
2019-05-19T21:00:30.558Z,19.7
2019-05-19T21:01:40.347Z,19.7
2019-05-19T21:02:49.988Z,19.7
2019-05-19T21:03:59.621Z,19.7
2019-05-19T21:05:09.261Z,19.7
2019-05-19T21:06:18.935Z,19.6
2019-05-19T21:07:28.636Z,19.6
2019-05-19T21:08:38.285Z,19.6
2019-05-19T21:09:47.950Z,19.5
2019-05-19T21:10:57.643Z,19.5
2019-05-19T21:12:07.323Z,19.5
2019-05-19T21:13:16.975Z,19.5
2019-05-19T21:14:26.650Z,19.4
2019-05-19T21:15:36.330Z,19.4
2019-05-19T21:16:46.004Z,19.3
2019-05-19T21:17:55.723Z,19.2
2019-05-19T21:19:05.315Z,19.2
2019-05-19T21:20:15.084Z,19.1
2019-05-19T21:21:24.656Z,19.1
2019-05-19T21:22:34.350Z,19.1
2019-05-19T21:23:43.973Z,19.1
2019-05-19T21:24:53.664Z,19.1
2019-05-19T21:26:03.304Z,19
2019-05-19T21:27:12.970Z,19
2019-05-19T21:28:22.702Z,18.9
2019-05-19T21:29:32.288Z,18.8
2019-05-19T21:30:41.945Z,18.8
2019-05-19T21:31:51.683Z,18.8
2019-05-19T21:33:01.260Z,18.7
2019-05-19T21:34:10.913Z,18.7
2019-05-19T21:35:20.578Z,18.6
2019-05-19T21:36:30.291Z,18.6
2019-05-19T22:49:13.929Z,18
2019-05-19T22:50:31.537Z,17.9
2019-05-19T22:51:51.176Z,17.8
2019-05-19T22:53:10.854Z,17.7
2019-05-19T22:54:28.491Z,17.6
2019-05-19T22:55:47.237Z,17.7
2019-05-19T22:57:02.879Z,17.6
2019-05-19T22:58:18.537Z,17.6
2019-05-19T22:59:32.137Z,17.6
2019-05-19T23:00:45.783Z,17.6
2019-05-19T23:01:59.421Z,17.6
2019-05-19T23:03:13.061Z,17.5
2019-05-19T23:04:24.629Z,17.5
2019-05-19T23:05:36.252Z,17.5
2019-05-19T23:06:47.872Z,17.5
2019-05-19T23:07:59.478Z,17.4
2019-05-19T23:09:11.106Z,17.4
2019-05-19T23:10:22.781Z,17.4
2019-05-19T23:11:34.323Z,17.3
2019-05-19T23:12:45.951Z,17.6
2019-05-19T23:13:57.565Z,17.3
2019-05-19T23:15:09.173Z,17.2
2019-05-19T23:16:20.802Z,17.2
2019-05-19T23:17:32.386Z,17.2
2019-05-19T23:18:44.023Z,17.2
2019-05-19T23:19:55.672Z,17.2